Time;durP1;ratioP1;P1;durP2;ratioP2;P2;SDS_P1;SDS_P2;PMS_P1;PMS_P2;Temp;Humidity;BMP_temperature;BMP_pressure;BME280_temperature;BME280_humidity;BME280_pressure;Samples;Min_cycle;Max_cycle;Signal;HPM_P1;HPM_P2
2021/07/29 00:01:51;;;;;;;7.05;3.33;;;17.60;99.90;;;;;;5052274;28;20029;-68
2021/07/29 00:04:16;;;;;;;4.28;2.95;;;17.60;99.90;;;;;;5052453;28;20096;-67
2021/07/29 00:06:43;;;;;;;4.22;2.70;;;17.60;99.90;;;;;;5051211;28;20517;-68
2021/07/29 00:09:08;;;;;;;4.97;3.35;;;17.60;99.90;;;;;;5052614;28;20032;-68
2021/07/29 00:11:35;;;;;;;5.28;3.40;;;17.50;99.90;;;;;;5052094;28;20036;-67
2021/07/29 00:14:01;;;;;;;7.03;3.25;;;17.50;99.90;;;;;;5052547;28;20037;-68
2021/07/29 00:16:32;;;;;;;5.55;3.40;;;17.50;99.90;;;;;;5032803;28;20053;-67
2021/07/29 00:19:05;;;;;;;7.17;3.43;;;17.40;99.90;;;;;;4998975;28;20029;-67
2021/07/29 00:21:35;;;;;;;6.35;3.80;;;17.30;99.90;;;;;;5032089;28;20040;-68
2021/07/29 00:24:02;;;;;;;8.13;3.65;;;17.40;99.90;;;;;;5032559;28;20034;-67
2021/07/29 00:26:29;;;;;;;6.35;3.45;;;17.30;99.90;;;;;;5032294;28;20029;-67
2021/07/29 00:28:55;;;;;;;5.35;3.25;;;17.30;99.90;;;;;;5032294;28;20418;-67
2021/07/29 00:31:28;;;;;;;5.80;3.50;;;17.30;99.90;;;;;;5030863;28;20029;-67
2021/07/29 00:33:54;;;;;;;7.93;3.83;;;17.30;99.90;;;;;;5030982;28;20117;-68
2021/07/29 00:36:22;;;;;;;8.23;3.47;;;17.30;99.90;;;;;;5031853;28;20069;-68
2021/07/29 00:38:48;;;;;;;5.45;3.65;;;17.30;99.90;;;;;;5014502;28;20061;-68
2021/07/29 00:41:14;;;;;;;6.38;3.80;;;17.30;99.90;;;;;;5032017;28;20037;-68
2021/07/29 00:43:41;;;;;;;5.05;3.22;;;17.30;99.90;;;;;;5030829;28;20500;-67
2021/07/29 00:46:08;;;;;;;7.38;3.80;;;17.30;99.90;;;;;;5045701;28;20047;-67
2021/07/29 00:48:34;;;;;;;7.45;3.55;;;17.30;99.90;;;;;;5051742;28;20057;-68
2021/07/29 00:51:01;;;;;;;5.60;3.60;;;17.30;99.90;;;;;;5015762;28;20056;-68
2021/07/29 00:53:29;;;;;;;5.13;2.88;;;17.30;99.90;;;;;;5011099;28;20096;-67
2021/07/29 00:55:56;;;;;;;8.40;3.47;;;17.30;99.90;;;;;;5012638;28;20064;-68
2021/07/29 00:58:22;;;;;;;7.57;3.25;;;17.40;99.90;;;;;;5012315;28;20055;-68
2021/07/29 01:00:48;;;;;;;6.25;3.03;;;17.40;99.90;;;;;;5010664;28;20087;-67
2021/07/29 01:03:14;;;;;;;4.60;3.05;;;17.30;99.90;;;;;;5012276;28;20030;-67
2021/07/29 01:05:41;;;;;;;7.57;3.35;;;17.30;99.90;;;;;;5011774;28;20061;-68
2021/07/29 01:08:07;;;;;;;5.32;3.10;;;17.20;99.90;;;;;;5014774;28;20022;-67
2021/07/29 01:10:35;;;;;;;6.03;2.90;;;17.20;99.90;;;;;;5029418;28;20038;-67
2021/07/29 01:13:01;;;;;;;11.25;3.10;;;17.30;99.90;;;;;;5030144;28;20033;-68
2021/07/29 01:15:27;;;;;;;7.50;3.10;;;17.30;99.90;;;;;;5029225;28;20029;-67
2021/07/29 01:18:00;;;;;;;4.65;2.70;;;17.20;99.90;;;;;;5032720;28;20163;-67
2021/07/29 01:20:27;;;;;;;4.80;2.70;;;17.40;99.90;;;;;;5034620;28;20402;-67
2021/07/29 01:22:52;;;;;;;4.47;2.50;;;17.40;99.90;;;;;;5035352;28;20398;-67
2021/07/29 01:25:18;;;;;;;3.70;2.33;;;17.50;99.90;;;;;;5017472;28;20030;-68
2021/07/29 01:27:44;;;;;;;5.85;2.38;;;17.40;99.90;;;;;;5022224;28;20426;-67
2021/07/29 01:30:11;;;;;;;5.55;2.42;;;17.40;99.90;;;;;;5017826;28;20490;-67
2021/07/29 01:32:38;;;;;;;5.35;2.25;;;17.50;99.90;;;;;;5035025;28;20032;-68
2021/07/29 01:35:04;;;;;;;3.45;2.22;;;17.40;99.90;;;;;;5030084;28;20502;-68
2021/07/29 01:37:30;;;;;;;3.72;2.13;;;17.40;99.90;;;;;;5014111;28;20061;-68
2021/07/29 01:39:56;;;;;;;5.93;2.85;;;17.40;99.90;;;;;;5015579;28;20065;-68
2021/07/29 01:42:22;;;;;;;6.25;2.90;;;17.60;99.90;;;;;;5014069;28;20037;-68
2021/07/29 01:44:47;;;;;;;5.20;2.60;;;17.60;99.90;;;;;;5015100;28;20111;-68
2021/07/29 01:47:13;;;;;;;4.32;2.33;;;17.70;99.90;;;;;;5015387;28;20053;-68
2021/07/29 01:49:39;;;;;;;4.18;2.25;;;17.70;99.90;;;;;;5015000;28;20479;-68
2021/07/29 01:52:05;;;;;;;5.20;2.17;;;17.80;99.90;;;;;;5015380;28;20052;-69
2021/07/29 01:54:30;;;;;;;4.05;2.50;;;17.80;99.90;;;;;;5013863;28;20030;-68
2021/07/29 01:56:56;;;;;;;8.18;2.30;;;18.00;99.90;;;;;;5015037;28;20038;-68
2021/07/29 01:59:22;;;;;;;4.93;2.20;;;18.00;99.90;;;;;;5015074;28;20475;-68
2021/07/29 02:01:49;;;;;;;4.95;2.05;;;18.00;99.90;;;;;;5014701;28;20431;-69
2021/07/29 02:04:14;;;;;;;7.40;2.58;;;18.00;99.90;;;;;;5015045;28;20034;-68
2021/07/29 02:06:40;;;;;;;7.13;2.58;;;18.10;99.90;;;;;;5014675;28;20038;-68
2021/07/29 02:09:06;;;;;;;4.72;2.55;;;18.10;99.90;;;;;;5014780;28;20034;-67
2021/07/29 02:11:34;;;;;;;4.20;2.45;;;18.20;99.90;;;;;;5014969;28;20041;-67
2021/07/29 02:14:01;;;;;;;6.13;2.08;;;18.10;99.90;;;;;;5014450;28;20070;-67
2021/07/29 02:16:27;;;;;;;4.05;2.53;;;18.20;99.90;;;;;;5013504;28;20033;-67
2021/07/29 02:18:53;;;;;;;4.13;2.10;;;18.20;99.90;;;;;;5014636;28;20034;-67
2021/07/29 02:21:19;;;;;;;6.43;2.85;;;18.10;99.90;;;;;;5013316;28;20168;-66
2021/07/29 02:23:48;;;;;;;5.03;2.55;;;17.80;99.90;;;;;;5014434;28;20034;-67
2021/07/29 02:26:14;;;;;;;6.60;3.35;;;17.30;99.90;;;;;;5014373;28;20034;-68
2021/07/29 02:28:39;;;;;;;6.50;3.30;;;16.90;99.90;;;;;;5013803;28;20052;-67
2021/07/29 02:31:05;;;;;;;5.28;3.28;;;16.60;99.90;;;;;;5014205;28;20042;-67
2021/07/29 02:33:31;;;;;;;5.97;3.13;;;16.50;99.90;;;;;;5014273;28;20133;-67
2021/07/29 02:35:57;;;;;;;5.05;3.28;;;16.30;99.90;;;;;;5014075;28;20141;-67
2021/07/29 02:38:22;;;;;;;9.15;3.33;;;16.30;99.90;;;;;;5014502;28;20037;-67
2021/07/29 02:40:49;;;;;;;7.13;4.13;;;16.10;99.90;;;;;;5014374;28;20096;-67
2021/07/29 02:43:15;;;;;;;5.18;3.03;;;16.10;99.90;;;;;;5014019;28;20034;-67
2021/07/29 02:45:41;;;;;;;9.15;4.03;;;16.10;99.90;;;;;;5013791;28;20380;-67
2021/07/29 02:48:06;;;;;;;4.85;3.03;;;16.00;99.90;;;;;;5012982;28;20121;-68
2021/07/29 02:50:32;;;;;;;6.03;3.65;;;15.90;99.90;;;;;;5014220;28;20471;-68
2021/07/29 02:52:58;;;;;;;7.05;3.60;;;15.90;99.90;;;;;;5013710;28;20092;-67
2021/07/29 02:55:24;;;;;;;6.05;3.38;;;15.90;99.90;;;;;;5012752;28;20040;-67
2021/07/29 02:57:50;;;;;;;6.88;3.90;;;15.90;99.90;;;;;;5013872;28;20034;-67
2021/07/29 03:00:16;;;;;;;9.00;3.72;;;15.90;99.90;;;;;;5013961;28;20567;-67
2021/07/29 03:02:41;;;;;;;4.75;3.17;;;15.80;99.90;;;;;;5013963;28;20026;-67
2021/07/29 03:05:08;;;;;;;7.68;3.78;;;15.90;99.90;;;;;;5013616;28;20088;-67
2021/07/29 03:07:33;;;;;;;5.53;3.38;;;15.80;99.90;;;;;;5013843;28;20038;-68
2021/07/29 03:09:59;;;;;;;8.98;3.20;;;15.80;99.90;;;;;;5013638;28;20040;-68
2021/07/29 03:12:26;;;;;;;5.22;3.30;;;15.80;99.90;;;;;;5013928;28;20037;-68
2021/07/29 03:14:51;;;;;;;6.45;3.50;;;15.80;99.90;;;;;;5013648;28;20026;-68
2021/07/29 03:17:17;;;;;;;6.63;3.33;;;15.80;99.90;;;;;;5013427;28;20041;-68
2021/07/29 03:19:43;;;;;;;6.40;3.30;;;15.90;99.90;;;;;;5012361;28;20040;-68
2021/07/29 03:22:08;;;;;;;7.97;3.20;;;16.00;99.90;;;;;;5013581;28;20036;-68
2021/07/29 03:24:34;;;;;;;6.85;3.90;;;16.00;99.90;;;;;;5012164;28;20034;-68
2021/07/29 03:27:00;;;;;;;7.65;3.65;;;16.00;99.90;;;;;;5012273;28;20018;-68
2021/07/29 03:29:27;;;;;;;6.75;3.28;;;16.10;99.90;;;;;;5013029;28;20509;-68
2021/07/29 03:31:56;;;;;;;4.95;3.22;;;16.20;99.90;;;;;;5013475;28;20092;-68
2021/07/29 03:34:22;;;;;;;7.15;3.90;;;16.20;99.90;;;;;;5013127;28;20378;-68
2021/07/29 03:36:47;;;;;;;5.20;3.33;;;16.30;99.90;;;;;;5013330;28;20038;-68
2021/07/29 03:39:14;;;;;;;6.65;3.78;;;16.20;99.90;;;;;;5013409;28;20422;-68
2021/07/29 03:41:39;;;;;;;9.98;3.85;;;16.20;99.90;;;;;;5013253;28;20026;-68
2021/07/29 03:44:05;;;;;;;5.22;3.53;;;16.20;99.90;;;;;;5012634;28;20095;-67
2021/07/29 03:46:31;;;;;;;13.38;4.43;;;16.20;99.90;;;;;;5013275;28;20026;-68
2021/07/29 03:48:58;;;;;;;8.45;4.65;;;16.20;99.90;;;;;;4983643;28;20041;-67
2021/07/29 03:51:25;;;;;;;7.85;3.67;;;16.20;99.90;;;;;;5003227;28;20060;-72
2021/07/29 03:53:51;;;;;;;9.30;4.68;;;16.30;99.90;;;;;;5012669;28;20113;-72
2021/07/29 03:56:17;;;;;;;9.45;4.28;;;16.40;99.90;;;;;;5022905;28;20107;-74
2021/07/29 03:58:43;;;;;;;9.70;5.25;;;16.50;99.90;;;;;;5032400;28;20044;-73
2021/07/29 04:01:10;;;;;;;9.98;4.85;;;16.50;99.90;;;;;;5033833;28;20034;-74
2021/07/29 04:03:37;;;;;;;10.48;4.78;;;16.60;99.90;;;;;;5047075;28;20085;-74
2021/07/29 04:06:03;;;;;;;6.50;4.38;;;16.60;99.90;;;;;;5052156;28;20110;-74
2021/07/29 04:08:29;;;;;;;6.88;4.00;;;16.70;99.90;;;;;;5051038;28;20067;-75
2021/07/29 04:10:58;;;;;;;6.82;3.92;;;16.80;99.90;;;;;;5052170;28;20128;-74
2021/07/29 04:13:25;;;;;;;9.73;4.80;;;16.80;99.90;;;;;;5051010;28;20485;-75
2021/07/29 04:16:01;;;;;;;6.82;4.18;;;16.80;99.90;;;;;;5052253;28;20119;-74
2021/07/29 04:18:31;;;;;;;15.02;4.68;;;16.80;99.90;;;;;;5052213;28;20045;-75
2021/07/29 04:20:57;;;;;;;6.53;3.97;;;16.90;99.90;;;;;;5034648;28;20115;-74
2021/07/29 04:23:22;;;;;;;5.55;3.55;;;16.90;99.90;;;;;;5050865;28;20060;-75
2021/07/29 04:25:48;;;;;;;7.15;4.40;;;16.90;99.90;;;;;;5044759;28;20025;-74
2021/07/29 04:28:14;;;;;;;7.95;3.85;;;17.00;99.90;;;;;;5032015;28;20375;-75
2021/07/29 04:30:40;;;;;;;9.68;4.15;;;17.00;99.90;;;;;;5032227;28;20087;-74
2021/07/29 04:33:09;;;;;;;7.40;3.97;;;17.10;99.90;;;;;;5032125;28;20068;-69
2021/07/29 04:35:39;;;;;;;6.68;3.42;;;17.20;99.90;;;;;;5030556;28;20037;-72
2021/07/29 04:38:05;;;;;;;6.68;3.90;;;17.20;99.90;;;;;;5031872;28;20348;-69
2021/07/29 04:40:31;;;;;;;6.18;3.80;;;17.20;99.90;;;;;;5032006;28;20041;-72
2021/07/29 04:42:56;;;;;;;6.45;4.10;;;17.30;99.90;;;;;;5032110;28;20429;-72
2021/07/29 04:45:23;;;;;;;7.15;3.42;;;17.30;99.90;;;;;;5031727;28;20144;-72
2021/07/29 04:47:51;;;;;;;5.80;3.58;;;17.40;99.90;;;;;;5032290;28;20034;-71
2021/07/29 04:50:17;;;;;;;8.32;3.42;;;17.40;99.90;;;;;;5030901;28;20030;-68
2021/07/29 04:52:43;;;;;;;5.35;3.00;;;17.40;99.90;;;;;;5032543;28;20029;-72
2021/07/29 04:55:09;;;;;;;5.80;3.40;;;17.50;99.90;;;;;;5037800;28;20526;-71
2021/07/29 04:57:35;;;;;;;10.75;4.28;;;17.50;99.90;;;;;;5056133;28;20031;-68
2021/07/29 05:00:01;;;;;;;6.40;3.50;;;17.50;99.90;;;;;;5055945;28;20119;-69
2021/07/29 05:02:26;;;;;;;6.95;3.85;;;17.50;99.90;;;;;;5056149;28;20032;-70
2021/07/29 05:04:52;;;;;;;8.00;3.50;;;17.60;99.90;;;;;;5055775;28;20036;-71
2021/07/29 05:07:18;;;;;;;9.48;3.08;;;17.60;99.90;;;;;;5055990;28;20028;-73
2021/07/29 05:09:43;;;;;;;6.68;3.28;;;17.60;99.90;;;;;;5051253;28;20056;-68
2021/07/29 05:12:09;;;;;;;5.10;3.53;;;17.60;99.90;;;;;;5015883;28;20083;-68
2021/07/29 05:14:35;;;;;;;6.65;3.60;;;17.50;99.90;;;;;;5015868;28;20487;-68
2021/07/29 05:17:02;;;;;;;6.63;3.20;;;17.60;99.90;;;;;;5015912;28;20038;-69
2021/07/29 05:19:27;;;;;;;7.60;3.22;;;17.60;99.90;;;;;;5015895;28;20062;-69
2021/07/29 05:21:53;;;;;;;5.45;3.15;;;17.70;99.90;;;;;;4997991;28;20072;-68
2021/07/29 05:24:19;;;;;;;7.63;3.25;;;17.80;99.90;;;;;;5014319;28;20052;-68
2021/07/29 05:26:45;;;;;;;7.03;3.92;;;17.90;99.90;;;;;;5045446;28;20478;-75
2021/07/29 05:29:11;;;;;;;7.07;3.33;;;17.90;99.90;;;;;;5037646;28;20124;-77
2021/07/29 05:31:41;;;;;;;9.95;3.03;;;18.00;99.90;;;;;;5054746;28;20131;-76
2021/07/29 05:34:10;;;;;;;7.82;3.47;;;17.90;99.90;;;;;;5055488;28;20024;-76
2021/07/29 05:36:37;;;;;;;4.75;2.88;;;17.90;99.90;;;;;;5055141;28;20029;-77
2021/07/29 05:39:04;;;;;;;5.53;3.03;;;17.90;99.90;;;;;;5055152;28;20116;-77
2021/07/29 05:41:30;;;;;;;5.63;2.80;;;18.00;99.90;;;;;;5054102;28;20033;-76
2021/07/29 05:43:55;;;;;;;4.70;2.33;;;17.90;99.90;;;;;;5054870;28;20047;-77
2021/07/29 05:46:22;;;;;;;4.22;2.30;;;18.10;99.90;;;;;;5055076;28;20064;-65
2021/07/29 05:48:48;;;;;;;4.65;2.38;;;18.20;99.90;;;;;;5055333;28;20025;-76
2021/07/29 05:51:14;;;;;;;7.15;2.55;;;18.30;99.90;;;;;;5053580;28;20036;-77
2021/07/29 05:53:40;;;;;;;3.85;2.40;;;18.40;99.90;;;;;;5040704;28;20033;-77
2021/07/29 05:56:06;;;;;;;4.25;2.15;;;18.40;99.90;;;;;;5015328;28;20041;-77
2021/07/29 05:58:32;;;;;;;4.55;2.67;;;18.50;99.90;;;;;;5013912;28;20026;-77
2021/07/29 06:00:57;;;;;;;4.57;2.33;;;18.50;99.90;;;;;;5014851;28;20048;-77
2021/07/29 06:03:23;;;;;;;5.57;2.53;;;18.50;99.90;;;;;;5013130;28;20062;-76
2021/07/29 06:05:51;;;;;;;4.68;2.70;;;18.50;99.90;;;;;;5014496;28;20072;-76
2021/07/29 06:08:17;;;;;;;6.60;2.50;;;18.40;99.90;;;;;;5011913;28;20033;-76
2021/07/29 06:10:43;;;;;;;7.47;2.45;;;18.40;99.90;;;;;;5013069;28;20034;-77
2021/07/29 06:13:09;;;;;;;6.32;4.00;;;18.40;99.90;;;;;;5025182;28;20033;-77
2021/07/29 06:15:35;;;;;;;3.90;1.95;;;18.40;99.90;;;;;;5012660;28;20056;-77
2021/07/29 06:18:01;;;;;;;6.65;2.03;;;18.60;99.90;;;;;;5018918;28;20483;-76
2021/07/29 06:20:29;;;;;;;4.35;2.60;;;18.60;99.90;;;;;;5022453;28;20037;-77
2021/07/29 06:22:55;;;;;;;4.32;2.67;;;18.60;99.90;;;;;;5023698;28;20080;-76
2021/07/29 06:25:20;;;;;;;4.80;2.40;;;18.70;99.90;;;;;;5017076;28;20422;-75
2021/07/29 06:27:49;;;;;;;4.65;2.55;;;18.90;99.90;;;;;;5014865;28;20084;-76
2021/07/29 06:30:17;;;;;;;6.25;2.10;;;18.90;99.90;;;;;;5014366;28;20101;-77
2021/07/29 06:32:43;;;;;;;7.20;2.13;;;18.90;99.90;;;;;;5030303;28;20167;-77
2021/07/29 06:35:09;;;;;;;3.72;2.08;;;18.90;99.90;;;;;;5033052;28;20075;-77
2021/07/29 06:37:35;;;;;;;5.90;2.40;;;18.90;99.90;;;;;;5032956;28;20044;-77
2021/07/29 06:40:01;;;;;;;5.35;2.05;;;19.00;99.90;;;;;;5033333;28;20383;-76
2021/07/29 06:42:27;;;;;;;6.10;2.35;;;19.10;99.90;;;;;;5032634;28;20100;-76
2021/07/29 06:44:54;;;;;;;3.22;2.08;;;19.10;99.90;;;;;;5028098;28;20134;-77
2021/07/29 06:47:21;;;;;;;6.03;2.25;;;19.10;99.90;;;;;;5014345;28;20062;-76
2021/07/29 06:49:47;;;;;;;5.63;2.50;;;19.10;99.90;;;;;;5019424;28;20056;-76
2021/07/29 06:52:14;;;;;;;3.70;1.95;;;19.10;99.90;;;;;;5032916;28;20033;-76
2021/07/29 06:54:40;;;;;;;4.13;1.90;;;19.10;99.90;;;;;;5032827;28;20053;-77
2021/07/29 06:57:07;;;;;;;5.68;2.30;;;19.20;99.90;;;;;;5032390;28;20033;-77
2021/07/29 06:59:34;;;;;;;4.50;2.30;;;19.10;99.90;;;;;;5033694;28;20037;-76
2021/07/29 07:02:00;;;;;;;5.03;2.22;;;19.10;99.90;;;;;;5032268;28;20040;-78
2021/07/29 07:04:26;;;;;;;6.20;2.13;;;19.10;99.90;;;;;;5034056;28;20083;-77
2021/07/29 07:06:52;;;;;;;6.97;2.13;;;19.10;99.90;;;;;;5032700;28;20037;-77
2021/07/29 07:09:18;;;;;;;6.28;2.53;;;19.10;99.90;;;;;;5033923;28;20391;-77
2021/07/29 07:11:44;;;;;;;3.22;1.90;;;19.20;99.90;;;;;;5033085;28;20036;-76
2021/07/29 07:14:10;;;;;;;3.78;2.30;;;19.30;99.90;;;;;;5034166;28;20053;-76
2021/07/29 07:16:37;;;;;;;7.28;2.38;;;19.40;99.90;;;;;;5034455;28;20163;-77
2021/07/29 07:19:05;;;;;;;5.55;2.28;;;19.40;99.90;;;;;;5034290;28;20116;-76
2021/07/29 07:21:32;;;;;;;6.43;2.38;;;19.30;99.90;;;;;;5034015;28;20030;-76
2021/07/29 07:23:57;;;;;;;5.30;2.08;;;19.20;99.90;;;;;;5034997;28;20030;-77
2021/07/29 07:26:25;;;;;;;4.00;2.20;;;19.30;99.90;;;;;;5050498;28;20120;-77
2021/07/29 07:28:51;;;;;;;6.07;2.40;;;19.20;99.90;;;;;;5035131;28;20092;-77
2021/07/29 07:31:18;;;;;;;5.13;1.95;;;19.40;99.90;;;;;;5033128;28;20069;-77
2021/07/29 07:33:45;;;;;;;3.10;1.88;;;19.50;99.90;;;;;;5033180;28;20026;-77
2021/07/29 07:36:11;;;;;;;6.05;2.42;;;19.60;99.90;;;;;;5032799;28;20031;-77
2021/07/29 07:38:36;;;;;;;8.80;2.35;;;19.70;99.90;;;;;;5033040;28;20109;-77
2021/07/29 07:41:07;;;;;;;5.32;2.47;;;19.60;99.90;;;;;;5032624;28;20048;-77
2021/07/29 07:43:33;;;;;;;3.45;1.63;;;19.80;99.90;;;;;;5016840;28;20026;-75
2021/07/29 07:46:00;;;;;;;2.85;1.58;;;19.80;99.90;;;;;;5012998;28;20115;-78
2021/07/29 07:48:27;;;;;;;3.03;1.55;;;19.80;99.90;;;;;;5012239;28;20080;-76
2021/07/29 07:50:54;;;;;;;4.30;1.73;;;19.90;99.90;;;;;;5013084;28;20034;-75
2021/07/29 07:53:24;;;;;;;6.25;1.90;;;19.90;99.90;;;;;;5013087;28;20109;-77
2021/07/29 07:55:51;;;;;;;3.07;1.80;;;20.00;99.90;;;;;;5011660;28;20026;-76
2021/07/29 07:58:17;;;;;;;5.25;2.20;;;19.80;99.90;;;;;;5011632;28;20029;-75
2021/07/29 08:00:43;;;;;;;4.72;2.17;;;20.00;99.90;;;;;;5028433;28;20091;-76
2021/07/29 08:03:09;;;;;;;4.78;2.35;;;20.20;99.90;;;;;;5032480;28;20528;-75
2021/07/29 08:05:35;;;;;;;4.47;1.90;;;20.30;99.90;;;;;;5015187;28;20056;-75
2021/07/29 08:08:01;;;;;;;4.57;2.28;;;20.30;99.90;;;;;;5011270;28;20124;-76
2021/07/29 08:10:30;;;;;;;7.10;2.10;;;20.40;99.90;;;;;;5023968;28;20030;-75
2021/07/29 08:12:56;;;;;;;4.75;2.15;;;20.50;99.90;;;;;;5030940;28;20037;-74
2021/07/29 08:15:21;;;;;;;5.25;2.20;;;20.50;99.90;;;;;;5031920;28;20034;-75
2021/07/29 08:17:47;;;;;;;3.92;1.98;;;20.60;99.90;;;;;;5034612;28;20026;-74
2021/07/29 08:20:13;;;;;;;5.82;2.35;;;20.50;99.90;;;;;;5030778;28;20471;-73
2021/07/29 08:22:39;;;;;;;5.72;2.17;;;20.70;99.90;;;;;;5032075;28;20037;-73
2021/07/29 08:25:05;;;;;;;5.18;2.10;;;20.70;99.90;;;;;;5030718;28;20087;-73
2021/07/29 08:27:34;;;;;;;5.18;1.75;;;20.80;99.90;;;;;;5031637;28;20025;-73
2021/07/29 08:30:01;;;;;;;6.43;2.20;;;20.80;99.90;;;;;;5032538;28;20025;-74
2021/07/29 08:32:28;;;;;;;5.80;2.20;;;20.90;99.90;;;;;;5032096;28;20471;-74
2021/07/29 08:34:56;;;;;;;4.35;1.92;;;20.90;99.90;;;;;;5031632;28;20063;-74
2021/07/29 08:37:22;;;;;;;3.95;2.10;;;20.90;99.90;;;;;;5030491;28;20083;-74
2021/07/29 08:39:48;;;;;;;3.67;2.10;;;21.10;99.90;;;;;;5032322;28;20079;-74
2021/07/29 08:42:13;;;;;;;4.30;2.17;;;21.00;99.90;;;;;;5032062;28;20037;-74
2021/07/29 08:44:39;;;;;;;5.47;2.42;;;20.90;99.90;;;;;;5031966;28;20081;-74
2021/07/29 08:47:09;;;;;;;4.50;2.05;;;20.80;99.90;;;;;;5032130;28;20412;-74
2021/07/29 08:49:38;;;;;;;4.95;1.90;;;20.70;99.90;;;;;;5030930;28;20030;-75
2021/07/29 08:52:05;;;;;;;3.33;2.00;;;20.60;99.90;;;;;;5032296;28;20184;-75
2021/07/29 08:54:31;;;;;;;4.30;1.70;;;20.70;99.90;;;;;;5014290;28;20030;-75
2021/07/29 08:56:58;;;;;;;7.25;2.30;;;20.70;99.90;;;;;;5032161;28;20030;-75
2021/07/29 08:59:24;;;;;;;4.65;2.15;;;20.90;99.90;;;;;;5030507;28;20748;-75
2021/07/29 09:01:53;;;;;;;3.95;1.85;;;20.90;99.90;;;;;;5032098;28;20065;-76
2021/07/29 09:04:19;;;;;;;4.13;2.10;;;21.00;99.90;;;;;;5031610;28;20037;-75
2021/07/29 09:07:03;;;;;;;3.45;1.70;;;21.00;99.90;;;;;;5031780;28;20025;-76
2021/07/29 09:09:45;;;;;;;4.25;2.13;;;21.10;99.90;;;;;;5030783;28;20033;-75
2021/07/29 09:12:21;;;;;;;7.13;2.40;;;21.20;99.90;;;;;;5030591;28;20037;-74
2021/07/29 09:14:49;;;;;;;4.55;2.13;;;21.30;99.90;;;;;;5031815;28;20037;-72
2021/07/29 09:17:16;;;;;;;3.90;1.98;;;21.50;99.90;;;;;;5031420;28;20026;-74
2021/07/29 09:19:51;;;;;;;4.85;1.50;;;21.50;99.90;;;;;;5030359;28;20560;-74
2021/07/29 09:22:23;;;;;;;8.50;2.03;;;21.70;98.50;;;;;;5031486;28;20038;-73
2021/07/29 09:25:09;;;;;;;2.95;1.48;;;21.70;98.10;;;;;;5031765;28;20367;-73
2021/07/29 09:27:38;;;;;;;3.60;1.85;;;21.60;96.90;;;;;;5031934;28;20096;-74
2021/07/29 09:30:22;;;;;;;6.47;2.05;;;21.50;96.00;;;;;;5031734;28;20117;-76
2021/07/29 09:33:12;;;;;;;3.83;1.73;;;21.40;95.30;;;;;;5030308;28;20506;-74
2021/07/29 09:35:45;;;;;;;5.80;1.90;;;21.30;96.40;;;;;;5031660;28;20049;-76
2021/07/29 09:38:24;;;;;;;4.80;1.92;;;21.20;96.30;;;;;;5030978;28;20037;-74
2021/07/29 09:41:02;;;;;;;3.47;1.40;;;21.30;97.60;;;;;;5035195;28;20037;-75
2021/07/29 09:43:37;;;;;;;5.05;1.77;;;21.40;96.90;;;;;;5033873;28;20029;-75
2021/07/29 09:46:16;;;;;;;4.63;1.75;;;21.50;96.50;;;;;;5033798;28;20044;-71
2021/07/29 09:48:44;;;;;;;15.32;2.38;;;21.50;97.30;;;;;;5033746;28;20057;-73
2021/07/29 09:51:11;;;;;;;4.30;1.88;;;21.50;96.70;;;;;;5033939;28;20643;-72
2021/07/29 09:53:38;;;;;;;6.05;1.88;;;21.70;95.30;;;;;;5033512;28;20471;-74
2021/07/29 09:56:12;;;;;;;2.75;1.40;;;21.90;95.60;;;;;;5034316;28;20036;-73
2021/07/29 09:58:41;;;;;;;7.47;1.88;;;22.10;93.90;;;;;;5033174;28;20028;-74
2021/07/29 10:01:10;;;;;;;4.97;1.90;;;21.90;93.00;;;;;;5033887;28;20029;-75
2021/07/29 10:03:43;;;;;;;3.65;1.65;;;21.90;93.70;;;;;;5033657;28;20044;-74
2021/07/29 10:06:17;;;;;;;2.75;1.40;;;21.80;93.40;;;;;;5033704;28;20021;-74
2021/07/29 10:08:57;;;;;;;5.10;1.90;;;21.70;94.00;;;;;;5033438;28;20033;-74
2021/07/29 10:11:27;;;;;;;;;;;21.90;93.70;;;;;;5028226;28;20137;-75
2021/07/29 10:13:53;;;;;;;5.38;1.98;;;22.10;93.20;;;;;;5030081;28;19914;-75
2021/07/29 10:16:47;;;;;;;3.72;1.60;;;22.40;92.40;;;;;;5025137;28;20033;-76
2021/07/29 10:19:13;;;;;;;4.70;1.75;;;22.60;93.00;;;;;;5034239;28;20025;-74
2021/07/29 10:21:41;;;;;;;4.63;1.50;;;22.50;92.00;;;;;;5033408;28;20037;-77
2021/07/29 10:24:08;;;;;;;11.27;2.78;;;22.70;92.30;;;;;;5033357;28;20029;-71
2021/07/29 10:27:15;;;;;;;2.85;1.33;;;22.80;92.00;;;;;;5034511;28;20470;-72
2021/07/29 10:29:40;;;;;;;2.95;1.70;;;22.90;90.70;;;;;;5031823;28;20040;-77
2021/07/29 10:32:09;;;;;;;4.93;1.75;;;22.80;92.30;;;;;;5015440;28;20057;-72
2021/07/29 10:34:36;;;;;;;3.47;1.55;;;22.80;90.80;;;;;;5031713;28;20049;-82
2021/07/29 10:37:08;;;;;;;2.97;1.60;;;22.80;90.40;;;;;;5021561;28;20120;-73
2021/07/29 10:40:00;;;;;;;3.08;1.80;;;22.90;91.10;;;;;;5015726;28;20069;-73
2021/07/29 10:42:30;;;;;;;4.25;1.60;;;22.70;90.80;;;;;;5015178;28;20596;-73
2021/07/29 10:44:57;;;;;;;4.73;1.63;;;22.50;91.10;;;;;;4998625;28;20053;-73
2021/07/29 10:47:37;;;;;;;3.65;1.90;;;22.70;90.40;;;;;;5015133;28;20041;-74
2021/07/29 10:50:03;;;;;;;3.60;1.77;;;22.70;90.50;;;;;;5014312;28;20177;-73
2021/07/29 10:52:30;;;;;;;3.10;1.67;;;23.00;90.60;;;;;;5031428;28;20117;-76
2021/07/29 10:54:56;;;;;;;4.40;2.05;;;23.00;90.90;;;;;;5015022;28;20095;-77
2021/07/29 10:57:23;;;;;;;3.30;1.60;;;23.00;91.20;;;;;;5031099;28;20034;-78
2021/07/29 10:59:51;;;;;;;3.97;1.45;;;23.20;91.50;;;;;;5014755;28;20495;-81
2021/07/29 11:02:45;;;;;;;4.22;1.75;;;23.20;90.00;;;;;;5013883;28;20089;-81
2021/07/29 11:05:16;;;;;;;5.75;1.73;;;23.00;89.80;;;;;;5012511;28;20466;-82
2021/07/29 11:07:43;;;;;;;4.53;1.50;;;23.30;90.60;;;;;;4997364;28;20037;-80
2021/07/29 11:10:16;;;;;;;2.85;1.80;;;23.00;89.00;;;;;;5014169;28;20399;-81
2021/07/29 11:12:46;;;;;;;3.25;1.23;;;23.10;89.80;;;;;;5012564;28;20440;-83
2021/07/29 11:15:13;;;;;;;7.63;2.13;;;23.40;90.60;;;;;;5013793;28;20026;-82
2021/07/29 11:17:39;;;;;;;5.55;2.58;;;23.80;89.40;;;;;;4996295;28;20049;-83
2021/07/29 11:20:07;;;;;;;12.45;2.17;;;23.80;89.80;;;;;;5013324;28;20045;-83
2021/07/29 11:22:47;;;;;;;3.42;1.70;;;23.20;88.80;;;;;;5013628;28;20034;-81
2021/07/29 11:25:15;;;;;;;3.80;1.42;;;23.10;88.70;;;;;;5012353;28;20030;-83
2021/07/29 11:27:41;;;;;;;3.83;1.50;;;23.00;89.50;;;;;;5012245;28;20034;-81
2021/07/29 11:30:07;;;;;;;3.42;1.70;;;23.10;89.80;;;;;;4995828;28;20030;-81
2021/07/29 11:32:40;;;;;;;3.45;1.77;;;23.30;88.50;;;;;;4995734;28;20491;-83
2021/07/29 11:35:10;;;;;;;2.53;1.42;;;23.60;89.20;;;;;;5013555;28;20042;-80
2021/07/29 11:37:45;;;;;;;2.35;1.50;;;23.50;88.80;;;;;;5012053;28;20026;-82
2021/07/29 11:40:25;;;;;;;3.55;1.50;;;23.60;88.30;;;;;;5012044;28;20045;-80
2021/07/29 11:42:52;;;;;;;2.33;1.40;;;23.40;90.00;;;;;;5012130;28;20034;-79
2021/07/29 11:45:32;;;;;;;8.95;1.67;;;23.30;88.00;;;;;;5013638;28;20092;-82
2021/07/29 11:48:00;;;;;;;3.83;1.70;;;23.30;87.40;;;;;;5013272;28;20034;-84
2021/07/29 11:50:37;;;;;;;3.72;1.45;;;23.30;86.30;;;;;;5012221;28;20125;-84
2021/07/29 11:53:03;;;;;;;2.33;1.30;;;23.50;89.20;;;;;;5012958;28;20384;-82
2021/07/29 11:55:29;;;;;;;7.45;1.33;;;23.80;86.70;;;;;;5013214;28;20387;-81
2021/07/29 11:57:54;;;;;;;2.25;1.20;;;23.60;86.80;;;;;;5028986;28;20029;-83
2021/07/29 12:00:28;;;;;;;3.80;1.40;;;23.60;88.60;;;;;;5013526;28;20587;-88
2021/07/29 12:02:55;;;;;;;3.00;1.20;;;23.60;87.70;;;;;;5012414;28;20447;-85
2021/07/29 12:05:26;;;;;;;2.85;1.30;;;23.80;89.10;;;;;;5013244;28;20442;-83
2021/07/29 12:07:53;;;;;;;3.33;1.65;;;24.00;88.30;;;;;;5012387;28;20037;-84
2021/07/29 12:10:24;;;;;;;3.50;1.80;;;24.00;88.60;;;;;;5011727;28;20479;-85
2021/07/29 12:12:50;;;;;;;4.68;1.45;;;23.90;87.70;;;;;;5043451;28;20029;-82
2021/07/29 12:15:16;;;;;;;2.78;1.30;;;23.80;88.30;;;;;;5052494;28;20036;-84
2021/07/29 12:17:42;;;;;;;4.38;1.70;;;24.30;88.30;;;;;;5035683;28;20091;-83
2021/07/29 12:20:10;;;;;;;2.80;1.33;;;24.30;89.20;;;;;;5024531;28;20025;-83
2021/07/29 12:22:37;;;;;;;3.40;1.50;;;24.30;87.30;;;;;;5027985;28;20168;-84
2021/07/29 12:25:05;;;;;;;2.75;1.50;;;24.20;87.80;;;;;;5012917;28;20099;-82
2021/07/29 12:27:45;;;;;;;3.58;1.60;;;24.70;86.30;;;;;;5011512;28;20030;-83
2021/07/29 12:30:36;;;;;;;2.63;1.20;;;25.00;84.20;;;;;;5011179;28;20030;-82
2021/07/29 12:33:21;;;;;;;4.28;1.40;;;24.90;83.60;;;;;;5028133;28;20113;-81
2021/07/29 12:36:05;;;;;;;2.90;1.45;;;24.80;85.10;;;;;;4995935;28;20036;-81
2021/07/29 12:38:35;;;;;;;2.25;1.23;;;24.90;86.10;;;;;;5011448;28;20058;-82
2021/07/29 12:41:04;;;;;;;2.58;1.42;;;25.00;85.20;;;;;;4995503;28;20784;-84
2021/07/29 12:43:31;;;;;;;3.25;1.70;;;24.80;84.70;;;;;;5012250;28;20630;-82
2021/07/29 12:46:07;;;;;;;2.60;1.33;;;24.80;84.90;;;;;;5011919;28;20077;-83
2021/07/29 12:48:57;;;;;;;2.65;1.25;;;25.20;83.00;;;;;;5012748;28;20080;-80
2021/07/29 12:51:35;;;;;;;4.85;1.17;;;25.30;85.00;;;;;;5011219;28;20475;-83
2021/07/29 12:54:07;;;;;;;4.38;1.40;;;25.20;83.70;;;;;;5012225;28;20053;-82